Time;durP1;ratioP1;P1;durP2;ratioP2;P2;SDS_P1;SDS_P2;PMS_P1;PMS_P2;Temp;Humidity;BMP_temperature;BMP_pressure;BME280_temperature;BME280_humidity;BME280_pressure;Samples;Min_cycle;Max_cycle;Signal;HPM_P1;HPM_P2
2022/07/19 00:02:16;;;;;;;8.45;2.30;;;;;;;18.57;43.96;100284.69;10335145;28;20408;-81
2022/07/19 00:07:18;;;;;;;7.45;2.20;;;;;;;18.78;43.70;100282.81;10338250;28;20058;-81
2022/07/19 00:12:20;;;;;;;5.90;2.10;;;;;;;18.92;43.59;100276.28;10338477;28;20500;-81
2022/07/19 00:17:22;;;;;;;6.97;2.58;;;;;;;18.89;43.60;100281.88;10338240;28;20466;-81
2022/07/19 00:22:24;;;;;;;9.95;2.55;;;;;;;18.84;43.78;100276.97;10335669;28;20097;-81
2022/07/19 00:27:25;;;;;;;6.78;2.25;;;;;;;18.87;43.29;100274.03;10355154;28;20100;-81
2022/07/19 00:32:27;;;;;;;6.57;2.20;;;;;;;18.79;43.75;100273.88;10354179;28;20050;-81
2022/07/19 00:37:29;;;;;;;7.78;2.75;;;;;;;18.24;44.76;100274.38;10335551;28;20058;-81
2022/07/19 00:42:31;;;;;;;7.65;2.30;;;;;;;18.30;44.89;100279.16;10334664;28;20104;-81
2022/07/19 00:47:32;;;;;;;7.05;2.50;;;;;;;18.46;44.76;100290.09;10335001;28;20109;-81
2022/07/19 00:52:37;;;;;;;5.28;2.30;;;;;;;18.50;44.44;100278.25;10340226;28;20054;-81
2022/07/19 00:57:39;;;;;;;7.38;2.40;;;;;;;18.37;44.74;100281.13;10352119;28;20058;-81
2022/07/19 01:02:41;;;;;;;4.93;2.30;;;;;;;18.39;44.82;100284.47;10335581;28;20050;-81
2022/07/19 01:07:43;;;;;;;8.38;2.53;;;;;;;18.30;45.00;100292.38;10351249;28;20062;-81
2022/07/19 01:12:55;;;;;;;7.28;2.65;;;;;;;18.26;45.64;100281.19;10334497;28;20601;-81
2022/07/19 01:17:57;;;;;;;8.65;2.70;;;;;;;18.19;45.48;100281.84;10337283;28;20065;-81
2022/07/19 01:22:59;;;;;;;6.07;2.80;;;;;;;18.05;45.57;100283.03;10334767;28;20428;-81
2022/07/19 01:28:04;;;;;;;6.90;2.55;;;;;;;17.77;45.89;100281.84;10350577;28;20050;-81
2022/07/19 01:39:28;;;;;;;7.18;2.50;;;;;;;17.39;47.18;100289.50;10336437;28;20487;-81
2022/07/19 01:44:30;;;;;;;7.20;2.47;;;;;;;17.44;46.87;100289.13;10335878;28;20500;-81
2022/07/19 01:49:31;;;;;;;4.63;2.45;;;;;;;17.40;46.98;100282.41;10350197;28;20073;-81
2022/07/19 01:54:33;;;;;;;8.90;2.55;;;;;;;16.66;48.09;100285.78;10331248;28;20428;-81
2022/07/19 01:59:36;;;;;;;7.50;2.50;;;;;;;16.54;48.99;100286.75;10335033;28;20104;-81
2022/07/19 02:04:38;;;;;;;9.40;2.70;;;;;;;16.26;49.53;100289.84;10355688;28;20046;-81
2022/07/19 02:09:40;;;;;;;4.70;2.25;;;;;;;16.51;49.59;100284.38;10337984;28;20050;-81
2022/07/19 02:14:42;;;;;;;5.38;2.40;;;;;;;16.72;48.94;100288.78;10339629;28;20468;-81
2022/07/19 02:19:44;;;;;;;5.85;2.50;;;;;;;16.76;48.74;100287.59;10352279;28;20113;-81
2022/07/19 02:24:45;;;;;;;7.82;2.35;;;;;;;16.47;49.41;100277.66;10339320;28;20769;-81
2022/07/19 02:29:48;;;;;;;9.35;2.80;;;;;;;16.21;50.19;100285.75;10337707;28;20467;-81
2022/07/19 02:34:51;;;;;;;7.32;2.38;;;;;;;16.20;50.45;100277.97;10339723;28;20412;-81
2022/07/19 02:39:52;;;;;;;6.85;2.38;;;;;;;16.39;50.20;100274.72;10355581;28;20120;-81
2022/07/19 02:44:54;;;;;;;7.63;2.75;;;;;;;15.88;50.93;100275.16;10336384;28;20108;-81
2022/07/19 02:49:56;;;;;;;5.97;2.60;;;;;;;15.84;51.55;100270.22;10341261;28;20058;-81
2022/07/19 02:54:57;;;;;;;5.78;2.50;;;;;;;15.91;51.71;100282.00;10339180;28;20062;-81
2022/07/19 02:59:59;;;;;;;8.30;2.85;;;;;;;16.00;51.35;100276.84;10339432;28;20066;-81
2022/07/19 03:05:01;;;;;;;5.97;2.50;;;;;;;16.06;50.83;100275.56;10344772;28;20050;-81
2022/07/19 03:10:04;;;;;;;7.57;2.50;;;;;;;16.07;50.50;100272.78;10356042;28;20788;-81
2022/07/19 03:15:06;;;;;;;5.65;2.58;;;;;;;16.12;50.60;100264.53;10339428;28;20097;-81
2022/07/19 03:20:09;;;;;;;7.10;2.65;;;;;;;16.12;50.77;100260.06;10340322;28;20053;-81
2022/07/19 03:25:11;;;;;;;4.10;2.42;;;;;;;16.06;50.58;100270.28;10342871;28;20069;-81
2022/07/19 03:30:13;;;;;;;8.07;2.70;;;;;;;15.84;50.91;100271.06;10340263;28;20062;-81
2022/07/19 03:35:14;;;;;;;7.15;2.40;;;;;;;15.24;51.97;100280.91;10338096;28;20049;-80
2022/07/19 03:40:16;;;;;;;4.35;2.72;;;;;;;15.24;52.22;100278.25;10339455;28;20050;-81
2022/07/19 03:45:18;;;;;;;6.88;2.60;;;;;;;15.46;52.15;100281.00;10340087;28;20459;-81
2022/07/19 03:50:20;;;;;;;5.93;2.13;;;;;;;15.51;52.14;100285.97;10341444;28;20058;-81
2022/07/19 03:55:22;;;;;;;5.25;2.58;;;;;;;15.56;52.13;100295.19;10339204;28;20042;-81
2022/07/19 04:00:23;;;;;;;5.97;2.72;;;;;;;15.74;51.96;100296.47;10340584;28;20057;-81
2022/07/19 04:05:25;;;;;;;5.72;2.60;;;;;;;15.80;51.76;100290.72;10339730;28;20450;-81
2022/07/19 04:10:27;;;;;;;5.30;2.85;;;;;;;15.89;51.27;100297.94;10337864;28;20064;-81
2022/07/19 04:15:29;;;;;;;8.30;2.53;;;;;;;15.91;51.23;100297.81;10338512;28;20463;-81
2022/07/19 04:20:31;;;;;;;8.50;2.70;;;;;;;15.96;51.17;100301.78;10353104;28;20049;-81
2022/07/19 04:25:32;;;;;;;7.30;2.47;;;;;;;16.73;50.22;100297.56;10351959;28;20522;-82
2022/07/19 04:30:34;;;;;;;5.32;2.45;;;;;;;19.53;44.80;100285.72;10337885;28;20656;-81
2022/07/19 04:35:36;;;;;;;7.63;2.53;;;;;;;22.27;39.09;100281.84;10336761;28;20463;-81
2022/07/19 04:40:38;;;;;;;7.43;2.35;;;;;;;24.17;35.46;100273.78;10338040;28;20050;-81
2022/07/19 04:45:41;;;;;;;4.78;2.20;;;;;;;25.38;33.30;100258.06;10327740;28;20957;-81
2022/07/19 04:50:43;;;;;;;4.28;2.67;;;;;;;27.08;30.58;100260.59;10350900;28;20139;-81
2022/07/19 04:55:45;;;;;;;5.78;2.28;;;;;;;28.59;28.01;100254.66;10336985;28;20057;-81
2022/07/19 05:00:47;;;;;;;6.35;2.25;;;;;;;29.66;26.48;100250.22;10352895;28;20062;-81
2022/07/19 05:05:49;;;;;;;8.95;2.58;;;;;;;29.88;25.94;100248.97;10348537;28;20488;-81
2022/07/19 05:10:52;;;;;;;5.50;2.35;;;;;;;30.41;25.32;100250.56;10327429;28;20046;-81
2022/07/19 05:15:54;;;;;;;7.90;2.50;;;;;;;31.03;24.26;100247.22;10346318;28;20472;-82
2022/07/19 05:20:56;;;;;;;6.72;2.47;;;;;;;31.18;23.89;100244.22;10332373;28;20058;-81
2022/07/19 05:26:16;;;;;;;5.90;2.05;;;;;;;31.31;22.94;100249.56;10349943;28;20053;-81
2022/07/19 05:31:18;;;;;;;4.95;2.00;;;;;;;31.57;23.55;100249.38;10348525;28;20049;-82
2022/07/19 05:36:20;;;;;;;8.30;2.40;;;;;;;29.84;24.67;100239.63;10335076;28;20054;-81
2022/07/19 05:41:22;;;;;;;5.03;2.35;;;;;;;26.52;29.01;100253.28;10347054;28;20108;-81
2022/07/19 05:46:25;;;;;;;7.53;2.60;;;;;;;24.51;32.38;100254.81;10350527;28;20078;-81
2022/07/19 05:51:27;;;;;;;6.72;2.13;;;;;;;23.22;34.42;100265.59;10332818;28;20630;-81
2022/07/19 05:56:29;;;;;;;7.40;2.47;;;;;;;22.52;35.88;100257.00;10335138;28;20054;-81
2022/07/19 06:01:30;;;;;;;9.73;2.70;;;;;;;21.93;37.35;100256.97;10334724;28;20058;-81
2022/07/19 06:06:34;;;;;;;7.72;2.97;;;;;;;21.46;38.41;100258.25;10348418;28;20507;-81
2022/07/19 06:11:36;;;;;;;7.47;2.85;;;;;;;21.45;38.98;100256.59;10349327;28;20547;-81
2022/07/19 06:16:40;;;;;;;6.38;2.83;;;;;;;21.24;39.49;100267.50;10333734;28;20049;-81
2022/07/19 06:21:42;;;;;;;7.03;3.10;;;;;;;21.01;40.02;100272.44;10331671;28;20515;-81
2022/07/19 06:26:44;;;;;;;9.43;3.25;;;;;;;21.01;39.31;100268.94;10333000;28;20057;-80
2022/07/19 06:31:48;;;;;;;9.73;3.30;;;;;;;20.99;39.38;100269.09;10333246;28;20054;-80
2022/07/19 06:36:51;;;;;;;7.85;3.10;;;;;;;21.11;39.43;100263.56;10329576;28;20050;-78
2022/07/19 06:41:54;;;;;;;10.13;3.08;;;;;;;21.33;39.13;100263.16;10347678;28;20062;-78
2022/07/19 06:46:56;;;;;;;12.20;2.92;;;;;;;21.71;38.55;100260.16;10348133;28;20144;-78
2022/07/19 06:51:57;;;;;;;7.97;2.70;;;;;;;21.79;38.55;100253.06;10330317;28;20136;-78
2022/07/19 06:56:59;;;;;;;5.65;2.58;;;;;;;22.09;37.22;100257.09;10331218;28;20054;-78
2022/07/19 07:02:01;;;;;;;6.18;3.35;;;;;;;22.14;36.25;100253.97;10332903;28;20058;-78
2022/07/19 07:07:03;;;;;;;7.40;2.78;;;;;;;22.07;36.80;100256.44;10347638;28;20506;-78
2022/07/19 07:12:05;;;;;;;9.45;2.83;;;;;;;22.39;36.54;100256.59;10330727;28;20072;-78
2022/07/19 07:17:07;;;;;;;12.32;2.90;;;;;;;22.58;35.86;100256.38;10332381;28;21178;-77
2022/07/19 07:22:09;;;;;;;7.55;2.90;;;;;;;22.63;36.17;100253.22;10331170;28;20140;-78
2022/07/19 07:27:11;;;;;;;7.97;2.90;;;;;;;23.14;35.59;100244.22;10330357;28;20081;-77
2022/07/19 07:32:13;;;;;;;11.15;3.08;;;;;;;23.52;35.32;100235.59;10330997;28;20077;-77
2022/07/19 07:37:14;;;;;;;9.68;3.00;;;;;;;24.28;34.18;100231.53;10331061;28;20056;-77
2022/07/19 07:42:16;;;;;;;10.88;3.08;;;;;;;26.11;31.02;100220.75;10322375;28;20096;-78
2022/07/19 07:47:18;;;;;;;10.25;3.17;;;;;;;27.57;29.16;100217.72;10331230;28;20054;-78
2022/07/19 07:52:20;;;;;;;7.43;2.97;;;;;;;28.91;27.35;100202.00;10329013;28;21070;-78
2022/07/19 07:57:22;;;;;;;9.15;3.00;;;;;;;29.88;25.71;100195.88;10337131;28;20051;-78
2022/07/19 08:02:24;;;;;;;9.05;3.03;;;;;;;30.81;24.63;100208.03;10355054;28;20050;-78
2022/07/19 08:07:25;;;;;;;12.73;2.92;;;;;;;31.01;23.92;100203.38;10336943;28;20169;-78
2022/07/19 08:12:27;;;;;;;11.13;2.72;;;;;;;31.26;23.60;100206.97;10338148;28;20057;-78
2022/07/19 08:17:29;;;;;;;9.23;3.05;;;;;;;32.16;22.95;100182.06;10334022;28;20484;-79
2022/07/19 08:22:31;;;;;;;11.10;2.75;;;;;;;32.13;22.13;100181.66;10335692;28;20057;-78
2022/07/19 08:27:33;;;;;;;10.82;2.85;;;;;;;32.52;22.31;100177.69;10337053;28;20055;-78
2022/07/19 08:32:35;;;;;;;7.97;2.80;;;;;;;32.35;21.67;100169.34;10338856;28;20078;-78
2022/07/19 08:37:37;;;;;;;9.80;3.08;;;;;;;32.98;21.42;100165.16;10337484;28;20050;-78
2022/07/19 08:42:39;;;;;;;8.25;2.80;;;;;;;32.78;21.57;100155.66;10336216;28;20046;-78
2022/07/19 08:47:43;;;;;;;7.18;2.95;;;;;;;33.01;20.81;100159.28;10349312;28;20050;-78
2022/07/19 08:52:45;;;;;;;10.80;2.88;;;;;;;33.37;20.91;100146.63;10334120;28;20057;-78
2022/07/19 08:58:01;;;;;;;5.75;2.40;;;;;;;33.51;20.58;100148.09;10332270;28;20105;-78
2022/07/19 09:03:07;;;;;;;13.10;2.70;;;;;;;33.15;20.67;100148.22;10333082;28;20141;-78
2022/07/19 09:08:12;;;;;;;5.43;2.50;;;;;;;32.98;20.61;100145.41;10349780;28;20135;-79
2022/07/19 09:13:15;;;;;;;8.63;2.78;;;;;;;33.57;20.07;100142.53;10332087;28;21633;-78
2022/07/19 09:18:25;;;;;;;10.52;2.70;;;;;;;33.47;20.22;100136.88;10334356;28;20054;-78
2022/07/19 09:23:28;;;;;;;13.95;2.90;;;;;;;33.41;20.00;100126.13;10332523;28;20054;-78
2022/07/19 09:28:34;;;;;;;8.07;2.30;;;;;;;33.68;19.76;100132.75;10329742;28;20150;-79
2022/07/19 09:33:35;;;;;;;12.38;2.92;;;;;;;33.84;19.59;100118.44;10332592;28;20565;-78
2022/07/19 09:38:39;;;;;;;10.25;2.80;;;;;;;34.25;19.51;100109.28;10333797;28;20054;-78
2022/07/19 09:43:58;;;;;;;14.45;2.67;;;;;;;34.09;19.09;100110.88;10348599;28;20061;-78
2022/07/19 09:49:09;;;;;;;11.73;2.72;;;;;;;34.41;19.21;100103.94;10332444;28;20045;-79
2022/07/19 09:54:13;;;;;;;6.57;2.53;;;;;;;34.74;18.98;100097.78;10348557;28;20050;-78
2022/07/19 09:59:16;;;;;;;11.40;3.03;;;;;;;34.98;18.83;100093.06;10332646;28;20116;-79
2022/07/19 10:04:20;;;;;;;9.25;2.60;;;;;;;35.36;18.12;100088.53;10331941;28;20050;-79
2022/07/19 10:09:23;;;;;;;8.70;2.53;;;;;;;35.05;18.06;100083.66;10333579;28;20057;-78
2022/07/19 10:14:32;;;;;;;4.90;2.35;;;;;;;35.18;18.29;100077.88;10345076;28;20545;-79
2022/07/19 10:19:45;;;;;;;7.05;2.35;;;;;;;35.75;17.05;100064.03;10348372;28;20054;-78
2022/07/19 10:24:58;;;;;;;10.00;2.00;;;;;;;35.92;17.21;100059.38;10331891;28;20049;-78
2022/07/19 10:30:12;;;;;;;6.57;2.30;;;;;;;35.75;15.31;100047.72;10331350;28;20058;-79
2022/07/19 10:35:22;;;;;;;7.07;2.28;;;;;;;35.70;14.89;100042.19;10346144;28;20062;-78
2022/07/19 10:40:43;;;;;;;10.93;2.13;;;;;;;35.92;14.94;100029.44;10346867;28;20121;-78
2022/07/19 10:46:11;;;;;;;7.93;2.15;;;;;;;36.28;15.03;100028.78;10331963;28;20491;-79
2022/07/19 10:51:34;;;;;;;6.60;2.10;;;;;;;36.25;14.49;100020.28;10331331;28;20050;-80
2022/07/19 10:56:55;;;;;;;6.50;2.25;;;;;;;36.01;14.22;100008.84;10327122;28;20054;-80
2022/07/19 11:02:02;;;;;;;4.35;2.00;;;;;;;35.77;15.07;100018.34;10325723;28;20132;-79
2022/07/19 11:07:25;;;;;;;8.63;2.20;;;;;;;35.61;13.97;100008.34;10325384;28;20054;-79
2022/07/19 11:12:29;;;;;;;9.88;2.20;;;;;;;35.65;13.79;100004.06;10323588;28;20053;-80
2022/07/19 11:17:31;;;;;;;7.47;2.50;;;;;;;35.63;13.73;100006.19;10328190;28;20058;-79
2022/07/19 11:22:45;;;;;;;8.75;2.47;;;;;;;35.62;13.47;99994.50;10328121;28;20073;-79
2022/07/19 11:27:48;;;;;;;5.57;2.60;;;;;;;35.39;13.16;99992.84;10340985;28;20100;-79
2022/07/19 11:33:02;;;;;;;7.22;2.20;;;;;;;35.40;13.13;99985.50;10346465;28;20144;-79
2022/07/19 11:38:05;;;;;;;11.02;2.58;;;;;;;35.54;13.22;99985.94;10352188;28;20057;-79
2022/07/19 11:43:08;;;;;;;8.48;2.40;;;;;;;35.63;13.20;99976.28;10339285;28;20054;-79
2022/07/19 11:48:27;;;;;;;10.00;2.67;;;;;;;35.58;13.49;99970.75;10335678;28;20046;-79
2022/07/19 11:53:32;;;;;;;6.53;2.25;;;;;;;35.51;13.48;99968.22;10334392;28;21006;-79
2022/07/19 11:58:35;;;;;;;5.10;2.35;;;;;;;35.73;13.36;99962.78;10330287;28;20053;-79
2022/07/19 12:03:37;;;;;;;6.38;2.40;;;;;;;35.79;13.75;99961.78;10335504;28;20053;-79
2022/07/19 12:08:43;;;;;;;5.63;2.20;;;;;;;35.69;12.86;99953.50;10336017;28;20397;-79
2022/07/19 12:13:48;;;;;;;7.25;2.70;;;;;;;35.69;13.76;99953.50;10350637;28;20169;-79
2022/07/19 12:18:57;;;;;;;10.73;2.30;;;;;;;35.82;12.90;99964.00;10334866;28;20054;-79
2022/07/19 12:24:14;;;;;;;5.78;2.47;;;;;;;35.56;13.18;99945.69;10334681;28;20566;-79
2022/07/19 12:29:29;;;;;;;5.47;2.23;;;;;;;35.68;13.22;99940.94;10334625;28;20141;-79
2022/07/19 12:34:57;;;;;;;6.40;2.50;;;;;;;35.88;12.79;99922.97;10333081;28;20098;-80
2022/07/19 12:39:59;;;;;;;6.78;2.53;;;;;;;35.78;12.98;99927.47;10328721;28;20053;-79
2022/07/19 12:45:04;;;;;;;6.10;2.28;;;;;;;35.66;13.24;99924.06;10350271;28;20109;-79
2022/07/19 12:50:08;;;;;;;7.70;2.50;;;;;;;35.96;12.74;99929.84;10332051;28;20054;-79
2022/07/19 12:55:13;;;;;;;5.55;2.65;;;;;;;36.24;12.31;99917.91;10343385;28;20086;-79
2022/07/19 13:00:25;;;;;;;5.63;2.37;;;;;;;36.24;12.70;99917.91;10331388;28;20061;-79
2022/07/19 13:05:28;;;;;;;;;;;;;;;35.83;12.93;99919.38;10334144;28;20136;-79
2022/07/19 13:10:36;;;;;;;7.95;2.55;;;;;;;36.12;13.06;99907.13;10335000;28;19971;-79
2022/07/19 13:15:37;;;;;;;9.75;2.60;;;;;;;36.17;12.78;99904.47;10327298;28;20105;-79
2022/07/19 13:20:39;;;;;;;7.85;2.53;;;;;;;36.10;13.29;99890.22;10345867;28;20101;-80
2022/07/19 13:25:41;;;;;;;4.88;2.30;;;;;;;36.12;13.02;99885.34;10335848;28;20803;-80
2022/07/19 13:30:46;;;;;;;7.13;2.60;;;;;;;35.88;13.78;99879.41;10334910;28;20064;-80
2022/07/19 13:35:48;;;;;;;6.43;2.40;;;;;;;35.89;12.72;99888.41;10334596;28;20497;-80
2022/07/19 13:40:58;;;;;;;7.35;2.20;;;;;;;35.67;12.98;99880.25;10332991;28;20069;-79
2022/07/19 13:46:02;;;;;;;4.57;2.20;;;;;;;35.91;13.19;99868.03;10333402;28;20050;-80
2022/07/19 13:51:04;;;;;;;5.68;2.10;;;;;;;36.11;12.65;99862.75;10334292;28;20054;-80
2022/07/19 13:56:06;;;;;;;6.35;2.35;;;;;;;36.24;12.93;99866.16;10348590;28;20491;-80
2022/07/19 14:01:09;;;;;;;6.68;2.40;;;;;;;36.21;12.43;99856.56;10329090;28;20117;-79
2022/07/19 14:06:32;;;;;;;5.97;2.08;;;;;;;36.30;12.60;99835.97;10343886;28;20133;-80
2022/07/19 14:11:35;;;;;;;7.05;2.15;;;;;;;36.49;13.00;99842.63;10330883;28;20054;-79
2022/07/19 14:16:37;;;;;;;4.75;1.85;;;;;;;36.51;12.47;99834.19;10333460;28;20050;-79
2022/07/19 14:21:39;;;;;;;7.00;2.05;;;;;;;36.54;12.04;99828.22;10335140;28;20066;-79
2022/07/19 14:26:40;;;;;;;6.95;2.15;;;;;;;36.63;11.90;99832.91;10332146;28;20508;-79
2022/07/19 14:31:42;;;;;;;5.68;2.25;;;;;;;36.67;11.61;99825.06;10333836;28;20065;-80
2022/07/19 14:36:44;;;;;;;6.13;2.00;;;;;;;36.67;11.46;99817.69;10330357;28;20501;-80
2022/07/19 14:41:46;;;;;;;7.80;2.25;;;;;;;36.61;11.60;99810.53;10332242;28;20101;-80
2022/07/19 14:46:48;;;;;;;7.47;1.80;;;;;;;36.62;11.51;99816.81;10331733;28;20050;-79
2022/07/19 14:51:50;;;;;;;7.22;1.90;;;;;;;36.65;11.09;99797.22;10327394;28;20053;-79
2022/07/19 14:56:52;;;;;;;4.47;2.03;;;;;;;36.61;10.58;99801.53;10331671;28;20467;-80
2022/07/19 15:01:54;;;;;;;6.00;2.22;;;;;;;36.58;10.85;99797.47;10336522;28;20462;-80
2022/07/19 15:06:56;;;;;;;11.27;2.47;;;;;;;36.65;11.04;99794.50;10344701;28;20045;-80
2022/07/19 15:11:59;;;;;;;7.80;2.25;;;;;;;36.71;11.29;99788.81;10357842;28;20145;-80
2022/07/19 15:17:03;;;;;;;5.43;2.10;;;;;;;36.73;11.02;99764.06;10340349;28;20100;-79
2022/07/19 15:22:06;;;;;;;4.90;2.53;;;;;;;36.77;11.40;99765.97;10355589;28;20574;-79
2022/07/19 15:27:13;;;;;;;;;;;;;;;36.37;11.41;99767.63;10357656;28;20054;-79
2022/07/19 15:32:16;;;;;;;9.50;2.00;;;;;;;36.75;11.74;99762.69;10334214;28;20371;-79
2022/07/19 15:37:19;;;;;;;7.88;2.50;;;;;;;36.60;11.40;99762.59;10343234;28;20085;-79
2022/07/19 15:42:21;;;;;;;5.80;1.88;;;;;;;36.65;11.16;99748.97;10358800;28;20059;-80
2022/07/19 15:47:23;;;;;;;6.18;2.25;;;;;;;36.76;11.60;99745.25;10340309;28;20054;-79
2022/07/19 15:52:24;;;;;;;7.15;2.30;;;;;;;36.80;11.33;99756.44;10343333;28;20056;-79
2022/07/19 15:57:26;;;;;;;8.77;2.33;;;;;;;36.63;11.62;99750.31;10356507;28;20064;-80
2022/07/19 16:02:28;;;;;;;7.00;2.47;;;;;;;36.50;11.32;99735.31;10346354;28;20056;-79
2022/07/19 16:07:30;;;;;;;7.18;2.33;;;;;;;36.50;11.57;99739.91;10337050;28;20099;-79
2022/07/19 16:12:32;;;;;;;8.73;2.58;;;;;;;36.52;12.04;99724.97;10342353;28;20062;-79
2022/07/19 16:17:36;;;;;;;5.68;2.33;;;;;;;36.46;11.67;99719.75;10337757;28;20061;-79
2022/07/19 16:22:38;;;;;;;7.70;2.45;;;;;;;36.43;11.89;99729.25;10339261;28;20060;-79
2022/07/19 16:27:39;;;;;;;8.48;2.30;;;;;;;36.38;12.31;99710.19;10332791;28;20097;-80
2022/07/19 16:32:41;;;;;;;8.45;2.22;;;;;;;36.36;12.38;99708.81;10333377;28;20054;-79
2022/07/19 16:37:43;;;;;;;7.50;2.38;;;;;;;36.39;12.38;99705.53;10332157;28;20447;-79
2022/07/19 16:42:45;;;;;;;8.77;2.60;;;;;;;36.23;12.38;99701.94;10346357;28;20071;-79
2022/07/19 16:48:08;;;;;;;10.40;2.40;;;;;;;36.19;12.63;99695.34;10335846;28;20046;-80
2022/07/19 16:53:11;;;;;;;10.30;2.47;;;;;;;36.12;12.61;99694.75;10329924;28;20045;-79
2022/07/19 16:58:13;;;;;;;6.10;2.40;;;;;;;36.07;12.45;99687.38;10326375;28;20306;-80
2022/07/19 17:03:15;;;;;;;6.45;2.15;;;;;;;36.03;12.64;99685.44;10333702;28;20046;-80
2022/07/19 17:08:18;;;;;;;9.45;2.45;;;;;;;36.00;12.61;99681.34;10345373;28;20128;-80
2022/07/19 17:13:20;;;;;;;5.75;2.28;;;;;;;35.95;13.10;99673.16;10329570;28;20089;-80
2022/07/19 17:18:25;;;;;;;7.93;2.47;;;;;;;35.84;13.39;99681.50;10338903;28;20054;-80
2022/07/19 17:23:28;;;;;;;9.95;2.40;;;;;;;35.79;13.56;99681.47;10332220;28;20076;-80
2022/07/19 17:28:30;;;;;;;8.80;2.63;;;;;;;35.71;13.48;99679.22;10329871;28;20061;-80
2022/07/19 17:33:32;;;;;;;8.02;2.30;;;;;;;35.67;13.46;99681.63;10345567;28;20447;-79
2022/07/19 17:38:35;;;;;;;11.13;2.80;;;;;;;35.55;13.78;99680.19;10328643;28;20050;-79
2022/07/19 17:43:40;;;;;;;6.57;2.33;;;;;;;35.43;13.83;99676.81;10327796;28;20065;-79
2022/07/19 17:48:42;;;;;;;9.55;2.42;;;;;;;35.33;14.25;99677.53;10333571;28;20108;-79
2022/07/19 17:53:49;;;;;;;11.03;2.37;;;;;;;35.11;14.32;99674.88;10348584;28;20120;-79
2022/07/19 17:58:51;;;;;;;10.88;2.42;;;;;;;35.02;14.44;99670.16;10330878;28;20106;-79
2022/07/19 18:03:53;;;;;;;15.73;2.30;;;;;;;34.97;14.74;99664.66;10330184;28;20065;-79
2022/07/19 18:08:55;;;;;;;15.43;3.25;;;;;;;34.85;14.79;99672.13;10346940;28;20050;-79
2022/07/19 18:13:58;;;;;;;8.13;2.22;;;;;;;34.61;15.08;99668.88;10333415;28;20054;-79
2022/07/19 18:19:00;;;;;;;9.43;2.45;;;;;;;34.34;15.51;99670.69;10342796;28;20484;-79
2022/07/19 18:24:01;;;;;;;7.00;2.35;;;;;;;34.13;15.62;99674.19;10328911;28;20112;-79
2022/07/19 18:29:03;;;;;;;8.20;2.22;;;;;;;33.97;16.05;99673.16;10343401;28;20054;-79
2022/07/19 18:34:05;;;;;;;4.40;2.17;;;;;;;33.81;16.22;99680.25;10334878;28;20050;-79
2022/07/19 18:39:07;;;;;;;51.30;4.93;;;;;;;33.57;16.63;99673.31;10325693;28;20140;-79
2022/07/19 18:44:09;;;;;;;58.97;5.07;;;;;;;33.28;16.78;99671.75;10330865;28;20097;-79
2022/07/19 18:49:11;;;;;;;44.45;4.40;;;;;;;32.97;17.63;99677.66;10332613;28;20074;-79
2022/07/19 18:54:14;;;;;;;22.73;3.40;;;;;;;32.67;18.07;99671.66;10345098;28;20060;-79
2022/07/19 18:59:17;;;;;;;16.98;3.45;;;;;;;32.35;18.55;99676.66;10321003;28;21873;-80
2022/07/19 19:04:25;;;;;;;17.00;2.70;;;;;;;32.08;18.82;99691.75;10324981;28;20081;-79
2022/07/19 19:09:29;;;;;;;;;;;;;;;31.39;19.59;99689.78;10327212;28;20100;-79
2022/07/19 19:14:33;;;;;;;12.80;2.83;;;;;;;31.40;19.61;99689.53;10327052;28;20323;-79
2022/07/19 19:19:35;;;;;;;18.13;3.63;;;;;;;30.93;19.99;99693.13;10340895;28;20480;-78
2022/07/19 19:24:36;;;;;;;19.65;3.53;;;;;;;30.51;20.46;99700.31;10342065;28;20054;-79
2022/07/19 19:29:47;;;;;;;11.35;3.15;;;;;;;30.30;21.40;99708.00;10326269;28;20038;-79
2022/07/19 19:34:50;;;;;;;41.60;5.00;;;;;;;29.91;22.56;99713.78;10345002;28;20061;-79
2022/07/19 19:39:52;;;;;;;62.85;6.45;;;;;;;29.70;22.97;99717.69;10327317;28;20053;-79
2022/07/19 19:44:54;;;;;;;148.70;13.15;;;;;;;29.36;22.82;99724.31;10334296;28;20046;-79
2022/07/19 19:49:56;;;;;;;74.78;8.13;;;;;;;29.03;23.97;99729.91;10327281;28;20139;-79
2022/07/19 19:54:58;;;;;;;49.10;6.28;;;;;;;28.79;23.65;99729.78;10339489;28;20057;-79
2022/07/19 20:00:00;;;;;;;17.45;3.70;;;;;;;28.57;24.13;99733.81;10353699;28;20105;-79
2022/07/19 20:05:02;;;;;;;21.23;3.35;;;;;;;28.45;25.13;99738.22;10335607;28;20128;-79
2022/07/19 20:10:04;;;;;;;14.18;3.15;;;;;;;28.42;25.16;99741.34;10337509;28;20057;-81
2022/07/19 20:15:07;;;;;;;13.30;2.97;;;;;;;28.33;26.14;99748.78;10336649;28;20055;-81
2022/07/19 20:20:09;;;;;;;11.10;2.75;;;;;;;28.05;26.99;99748.19;10336091;28;20058;-81
2022/07/19 20:25:11;;;;;;;9.73;3.33;;;;;;;27.52;27.82;99738.44;10336164;28;21946;-81
2022/07/19 20:30:13;;;;;;;8.75;2.60;;;;;;;27.07;28.77;99743.50;10337900;28;20054;-81
2022/07/19 20:35:14;;;;;;;9.85;2.80;;;;;;;26.92;28.44;99750.88;10330851;28;20500;-81
2022/07/19 20:40:16;;;;;;;11.60;2.72;;;;;;;26.85;28.74;99746.50;10332289;28;20042;-81
2022/07/19 20:45:20;;;;;;;9.18;3.35;;;;;;;26.69;28.77;99742.28;10329997;28;20400;-82
2022/07/19 20:50:26;;;;;;;9.37;3.33;;;;;;;26.47;29.06;99754.13;10336859;28;20050;-82
2022/07/19 20:55:28;;;;;;;12.98;3.17;;;;;;;26.39;29.16;99755.13;10335837;28;20125;-82
2022/07/19 21:00:30;;;;;;;7.95;3.28;;;;;;;26.14;29.37;99761.16;10333895;28;20512;-81
2022/07/19 21:05:33;;;;;;;12.27;2.95;;;;;;;26.03;29.97;99759.00;10334675;28;20053;-82
2022/07/19 21:10:35;;;;;;;14.50;3.30;;;;;;;26.04;30.01;99753.44;10336347;28;20108;-82
2022/07/19 21:15:37;;;;;;;10.73;2.90;;;;;;;25.73;30.99;99764.47;10327344;28;20069;-82
2022/07/19 21:20:38;;;;;;;12.40;3.15;;;;;;;25.48;31.01;99768.59;10339115;28;20085;-81
2022/07/19 21:25:40;;;;;;;8.40;2.78;;;;;;;25.35;31.90;99762.25;10334608;28;20569;-81
2022/07/19 21:30:42;;;;;;;13.02;3.33;;;;;;;25.37;31.83;99758.38;10329822;28;20753;-81
2022/07/19 21:35:44;;;;;;;9.45;3.35;;;;;;;25.04;32.28;99767.84;10332960;28;20076;-81
2022/07/19 21:40:46;;;;;;;14.93;3.13;;;;;;;25.03;32.30;99766.22;10332157;28;20053;-81
2022/07/19 21:45:48;;;;;;;12.80;3.17;;;;;;;24.82;32.50;99776.84;10330055;28;20081;-81
2022/07/19 21:50:50;;;;;;;8.50;3.03;;;;;;;24.59;33.15;99784.13;10332747;28;20495;-81
2022/07/19 21:55:51;;;;;;;10.40;3.67;;;;;;;24.49;33.26;99778.25;10333403;28;20050;-81
2022/07/19 22:00:53;;;;;;;12.68;3.15;;;;;;;24.50;33.39;99780.72;10333474;28;20089;-81
2022/07/19 22:05:56;;;;;;;10.27;3.42;;;;;;;24.41;33.49;99781.00;10333639;28;20549;-81
2022/07/19 22:10:58;;;;;;;11.07;3.45;;;;;;;24.24;34.35;99785.69;10328668;28;20085;-81
2022/07/19 22:16:00;;;;;;;6.20;3.28;;;;;;;24.18;34.22;99787.22;10332335;28;20427;-81
2022/07/19 22:21:03;;;;;;;10.40;3.33;;;;;;;24.06;34.61;99788.66;10333509;28;20101;-81
2022/07/19 22:26:04;;;;;;;7.20;3.03;;;;;;;23.87;34.72;99794.50;10349349;28;20472;-81
2022/07/19 22:31:08;;;;;;;11.68;3.55;;;;;;;23.71;35.02;99794.66;10332291;28;20065;-81
2022/07/19 22:36:10;;;;;;;10.15;3.20;;;;;;;23.61;35.24;99798.56;10348810;28;20061;-81
2022/07/19 22:41:12;;;;;;;13.93;3.15;;;;;;;23.60;35.56;99802.22;10332338;28;20427;-81
2022/07/19 22:46:14;;;;;;;7.05;2.83;;;;;;;23.23;35.93;99805.59;10350176;28;20130;-81
2022/07/19 22:51:19;;;;;;;8.40;3.08;;;;;;;22.54;36.61;99796.53;10331024;28;20197;-81
2022/07/19 22:56:21;;;;;;;9.98;3.20;;;;;;;22.62;36.80;99804.50;10332020;28;20045;-82
2022/07/19 23:01:23;;;;;;;10.77;3.05;;;;;;;22.70;36.63;99804.47;10327405;28;20057;-81
2022/07/19 23:06:25;;;;;;;7.72;3.13;;;;;;;22.70;37.21;99800.97;10330961;28;20829;-81
2022/07/19 23:11:26;;;;;;;8.02;3.13;;;;;;;22.62;37.38;99806.34;10333390;28;20053;-81
2022/07/19 23:16:28;;;;;;;8.07;3.10;;;;;;;22.52;37.44;99808.38;10330812;28;20049;-81
2022/07/19 23:21:30;;;;;;;10.60;3.72;;;;;;;22.46;37.49;99815.22;10333704;28;20133;-81
2022/07/19 23:26:32;;;;;;;7.90;3.50;;;;;;;22.30;38.02;99806.44;10356426;28;20461;-82